sensor_id;sensor_type;location;lat;lon;timestamp;temperature;humidity
68943;DHT22;60852;52.190;4.422;2023-02-03T00:02:17;9.39;85.41
68943;DHT22;60852;52.190;4.422;2023-02-03T00:04:43;9.38;85.37
68943;DHT22;60852;52.190;4.422;2023-02-03T00:07:11;9.45;85.32
68943;DHT22;60852;52.190;4.422;2023-02-03T00:09:38;9.38;85.41
68943;DHT22;60852;52.190;4.422;2023-02-03T00:12:04;9.42;85.41
68943;DHT22;60852;52.190;4.422;2023-02-03T00:14:30;9.42;85.47
68943;DHT22;60852;52.190;4.422;2023-02-03T00:16:58;9.53;85.12
68943;DHT22;60852;52.190;4.422;2023-02-03T00:19:23;9.48;85.09
68943;DHT22;60852;52.190;4.422;2023-02-03T00:21:48;9.52;84.96
68943;DHT22;60852;52.190;4.422;2023-02-03T00:24:14;9.52;84.87
68943;DHT22;60852;52.190;4.422;2023-02-03T00:26:41;9.41;85.27
68943;DHT22;60852;52.190;4.422;2023-02-03T00:29:07;9.46;85.20
68943;DHT22;60852;52.190;4.422;2023-02-03T00:31:34;9.53;85.01
68943;DHT22;60852;52.190;4.422;2023-02-03T00:33:59;9.59;84.72
68943;DHT22;60852;52.190;4.422;2023-02-03T00:36:25;9.59;84.45
68943;DHT22;60852;52.190;4.422;2023-02-03T00:38:52;9.69;84.20
68943;DHT22;60852;52.190;4.422;2023-02-03T00:41:20;9.75;84.01
68943;DHT22;60852;52.190;4.422;2023-02-03T00:43:47;9.76;83.80
68943;DHT22;60852;52.190;4.422;2023-02-03T00:46:13;9.73;83.94
68943;DHT22;60852;52.190;4.422;2023-02-03T00:48:38;9.69;84.02
68943;DHT22;60852;52.190;4.422;2023-02-03T00:51:04;9.72;83.94
68943;DHT22;60852;52.190;4.422;2023-02-03T00:53:30;9.75;84.00
68943;DHT22;60852;52.190;4.422;2023-02-03T00:55:56;9.78;83.80
68943;DHT22;60852;52.190;4.422;2023-02-03T00:58:21;9.73;83.78
68943;DHT22;60852;52.190;4.422;2023-02-03T01:00:47;9.68;84.17
68943;DHT22;60852;52.190;4.422;2023-02-03T01:03:12;9.72;83.98
68943;DHT22;60852;52.190;4.422;2023-02-03T01:05:37;9.72;83.99
68943;DHT22;60852;52.190;4.422;2023-02-03T01:08:03;9.66;84.01
68943;DHT22;60852;52.190;4.422;2023-02-03T01:10:29;9.66;84.10
68943;DHT22;60852;52.190;4.422;2023-02-03T01:12:55;9.73;83.87
68943;DHT22;60852;52.190;4.422;2023-02-03T01:15:21;9.78;83.62
68943;DHT22;60852;52.190;4.422;2023-02-03T01:17:47;9.75;83.25
68943;DHT22;60852;52.190;4.422;2023-02-03T01:20:12;9.76;83.12
68943;DHT22;60852;52.190;4.422;2023-02-03T01:22:39;9.75;82.82
68943;DHT22;60852;52.190;4.422;2023-02-03T01:25:04;9.82;82.60
68943;DHT22;60852;52.190;4.422;2023-02-03T01:27:33;9.82;82.92
68943;DHT22;60852;52.190;4.422;2023-02-03T01:29:59;9.87;82.87
68943;DHT22;60852;52.190;4.422;2023-02-03T01:32:25;9.86;82.64
68943;DHT22;60852;52.190;4.422;2023-02-03T01:34:50;9.90;82.23
68943;DHT22;60852;52.190;4.422;2023-02-03T01:37:16;9.92;82.13
68943;DHT22;60852;52.190;4.422;2023-02-03T01:39:42;9.90;81.99
68943;DHT22;60852;52.190;4.422;2023-02-03T01:42:11;9.92;81.93
68943;DHT22;60852;52.190;4.422;2023-02-03T01:44:40;9.93;81.77
68943;DHT22;60852;52.190;4.422;2023-02-03T01:47:26;9.97;81.69
68943;DHT22;60852;52.190;4.422;2023-02-03T01:50:18;9.99;81.42
68943;DHT22;60852;52.190;4.422;2023-02-03T01:52:51;10.03;81.27
68943;DHT22;60852;52.190;4.422;2023-02-03T01:55:27;9.97;81.51
68943;DHT22;60852;52.190;4.422;2023-02-03T01:58:01;9.99;81.28
68943;DHT22;60852;52.190;4.422;2023-02-03T02:00:27;10.09;81.15
68943;DHT22;60852;52.190;4.422;2023-02-03T02:02:53;10.03;81.06
68943;DHT22;60852;52.190;4.422;2023-02-03T02:05:30;9.99;81.28
68943;DHT22;60852;52.190;4.422;2023-02-03T02:07:59;9.99;81.18
68943;DHT22;60852;52.190;4.422;2023-02-03T02:10:26;9.94;81.37
68943;DHT22;60852;52.190;4.422;2023-02-03T02:12:58;9.97;81.32
68943;DHT22;60852;52.190;4.422;2023-02-03T02:25:59;9.99;81.66
68943;DHT22;60852;52.190;4.422;2023-02-03T02:34:18;9.89;82.47
68943;DHT22;60852;52.190;4.422;2023-02-03T02:37:04;9.96;82.07
68943;DHT22;60852;52.190;4.422;2023-02-03T02:39:38;9.97;82.02
68943;DHT22;60852;52.190;4.422;2023-02-03T02:43:09;9.90;82.15
68943;DHT22;60852;52.190;4.422;2023-02-03T02:49:02;9.92;81.92
68943;DHT22;60852;52.190;4.422;2023-02-03T02:51:04;9.90;82.06
68943;DHT22;60852;52.190;4.422;2023-02-03T02:53:39;9.83;82.30
68943;DHT22;60852;52.190;4.422;2023-02-03T02:56:09;9.81;82.41
68943;DHT22;60852;52.190;4.422;2023-02-03T02:58:38;9.83;82.43
68943;DHT22;60852;52.190;4.422;2023-02-03T03:01:07;9.93;82.17
68943;DHT22;60852;52.190;4.422;2023-02-03T03:03:33;9.92;81.88
68943;DHT22;60852;52.190;4.422;2023-02-03T03:06:03;9.94;81.84
68943;DHT22;60852;52.190;4.422;2023-02-03T03:08:49;9.90;81.65
68943;DHT22;60852;52.190;4.422;2023-02-03T03:11:16;9.87;81.88
68943;DHT22;60852;52.190;4.422;2023-02-03T03:13:51;9.92;81.75
68943;DHT22;60852;52.190;4.422;2023-02-03T03:16:23;9.90;81.70
68943;DHT22;60852;52.190;4.422;2023-02-03T03:18:58;10.02;81.50
68943;DHT22;60852;52.190;4.422;2023-02-03T03:21:37;9.96;81.52
68943;DHT22;60852;52.190;4.422;2023-02-03T03:24:21;9.97;81.58
68943;DHT22;60852;52.190;4.422;2023-02-03T03:29:43;9.86;82.03
68943;DHT22;60852;52.190;4.422;2023-02-03T03:32:12;9.89;82.08
68943;DHT22;60852;52.190;4.422;2023-02-03T03:34:38;9.87;82.11
68943;DHT22;60852;52.190;4.422;2023-02-03T03:39:41;9.87;82.28
68943;DHT22;60852;52.190;4.422;2023-02-03T03:42:13;9.90;82.01
68943;DHT22;60852;52.190;4.422;2023-02-03T03:50:19;9.90;82.03
68943;DHT22;60852;52.190;4.422;2023-02-03T03:52:48;9.85;82.20
68943;DHT22;60852;52.190;4.422;2023-02-03T03:55:17;9.86;82.08
68943;DHT22;60852;52.190;4.422;2023-02-03T03:57:59;9.93;82.06
68943;DHT22;60852;52.190;4.422;2023-02-03T04:00:30;9.92;81.90
68943;DHT22;60852;52.190;4.422;2023-02-03T04:03:01;9.94;81.98
68943;DHT22;60852;52.190;4.422;2023-02-03T04:05:31;9.90;81.98
68943;DHT22;60852;52.190;4.422;2023-02-03T04:07:58;9.89;81.97
68943;DHT22;60852;52.190;4.422;2023-02-03T04:10:34;9.89;82.04
68943;DHT22;60852;52.190;4.422;2023-02-03T04:13:00;9.92;81.97
68943;DHT22;60852;52.190;4.422;2023-02-03T04:15:30;9.94;81.80
68943;DHT22;60852;52.190;4.422;2023-02-03T04:17:56;9.96;81.73
68943;DHT22;60852;52.190;4.422;2023-02-03T04:20:23;9.94;81.80
68943;DHT22;60852;52.190;4.422;2023-02-03T04:22:49;9.94;81.60
68943;DHT22;60852;52.190;4.422;2023-02-03T04:25:15;9.96;81.74
68943;DHT22;60852;52.190;4.422;2023-02-03T04:27:40;9.89;81.91
68943;DHT22;60852;52.190;4.422;2023-02-03T04:30:06;9.87;81.92
68943;DHT22;60852;52.190;4.422;2023-02-03T04:32:32;9.85;82.09
68943;DHT22;60852;52.190;4.422;2023-02-03T04:35:00;9.89;81.97
68943;DHT22;60852;52.190;4.422;2023-02-03T04:37:25;9.89;82.13
68943;DHT22;60852;52.190;4.422;2023-02-03T04:39:52;9.85;82.25
68943;DHT22;60852;52.190;4.422;2023-02-03T04:42:18;9.86;82.24
68943;DHT22;60852;52.190;4.422;2023-02-03T04:44:43;9.87;82.33
68943;DHT22;60852;52.190;4.422;2023-02-03T04:47:09;9.89;82.16
68943;DHT22;60852;52.190;4.422;2023-02-03T04:49:34;9.87;82.20
68943;DHT22;60852;52.190;4.422;2023-02-03T04:52:00;9.93;82.19
68943;DHT22;60852;52.190;4.422;2023-02-03T04:54:25;9.83;82.27
68943;DHT22;60852;52.190;4.422;2023-02-03T04:56:51;9.87;82.20
68943;DHT22;60852;52.190;4.422;2023-02-03T04:59:16;9.89;82.12
68943;DHT22;60852;52.190;4.422;2023-02-03T05:01:42;9.94;82.00
68943;DHT22;60852;52.190;4.422;2023-02-03T05:04:07;9.96;81.83
68943;DHT22;60852;52.190;4.422;2023-02-03T05:06:33;9.92;81.82
68943;DHT22;60852;52.190;4.422;2023-02-03T05:08:58;9.93;81.80
68943;DHT22;60852;52.190;4.422;2023-02-03T05:11:24;9.86;82.14
68943;DHT22;60852;52.190;4.422;2023-02-03T05:13:50;9.89;82.13
68943;DHT22;60852;52.190;4.422;2023-02-03T05:16:15;9.82;82.19
68943;DHT22;60852;52.190;4.422;2023-02-03T05:18:41;9.82;82.24
68943;DHT22;60852;52.190;4.422;2023-02-03T05:21:07;9.81;82.30
68943;DHT22;60852;52.190;4.422;2023-02-03T05:23:33;9.75;82.47
68943;DHT22;60852;52.190;4.422;2023-02-03T05:25:58;9.69;82.60
68943;DHT22;60852;52.190;4.422;2023-02-03T05:28:23;9.68;82.88
68943;DHT22;60852;52.190;4.422;2023-02-03T05:30:49;9.71;82.72
68943;DHT22;60852;52.190;4.422;2023-02-03T05:33:15;9.73;82.87
68943;DHT22;60852;52.190;4.422;2023-02-03T05:35:40;9.76;82.67
68943;DHT22;60852;52.190;4.422;2023-02-03T05:38:06;9.72;82.68
68943;DHT22;60852;52.190;4.422;2023-02-03T05:40:31;9.71;82.61
68943;DHT22;60852;52.190;4.422;2023-02-03T05:43:15;9.66;82.85
68943;DHT22;60852;52.190;4.422;2023-02-03T05:45:41;9.63;82.98
68943;DHT22;60852;52.190;4.422;2023-02-03T05:48:07;9.68;82.85
68943;DHT22;60852;52.190;4.422;2023-02-03T05:50:33;9.55;83.20
68943;DHT22;60852;52.190;4.422;2023-02-03T05:52:59;9.58;83.26
68943;DHT22;60852;52.190;4.422;2023-02-03T05:55:26;9.62;83.12
68943;DHT22;60852;52.190;4.422;2023-02-03T05:57:52;9.66;83.14
68943;DHT22;60852;52.190;4.422;2023-02-03T06:00:17;9.72;82.83
68943;DHT22;60852;52.190;4.422;2023-02-03T06:02:43;9.62;83.03
68943;DHT22;60852;52.190;4.422;2023-02-03T06:05:08;9.49;83.61
68943;DHT22;60852;52.190;4.422;2023-02-03T06:07:34;9.44;83.72
68943;DHT22;60852;52.190;4.422;2023-02-03T06:10:00;9.48;83.66
68943;DHT22;60852;52.190;4.422;2023-02-03T06:12:25;9.45;83.90
68943;DHT22;60852;52.190;4.422;2023-02-03T06:14:50;9.45;83.88
68943;DHT22;60852;52.190;4.422;2023-02-03T06:17:16;9.46;83.95
68943;DHT22;60852;52.190;4.422;2023-02-03T06:19:41;9.48;83.88
68943;DHT22;60852;52.190;4.422;2023-02-03T06:22:07;9.55;83.70
68943;DHT22;60852;52.190;4.422;2023-02-03T06:24:32;9.56;83.64
68943;DHT22;60852;52.190;4.422;2023-02-03T06:26:57;9.65;83.50
68943;DHT22;60852;52.190;4.422;2023-02-03T06:29:24;9.68;83.39
68943;DHT22;60852;52.190;4.422;2023-02-03T06:31:49;9.65;83.43
68943;DHT22;60852;52.190;4.422;2023-02-03T06:34:14;9.66;83.55
68943;DHT22;60852;52.190;4.422;2023-02-03T06:36:40;9.61;83.73
68943;DHT22;60852;52.190;4.422;2023-02-03T06:39:05;9.68;83.62
68943;DHT22;60852;52.190;4.422;2023-02-03T06:41:31;9.65;83.69
68943;DHT22;60852;52.190;4.422;2023-02-03T06:43:57;9.69;83.63
68943;DHT22;60852;52.190;4.422;2023-02-03T06:46:22;9.72;83.65
68943;DHT22;60852;52.190;4.422;2023-02-03T06:48:52;9.73;83.63
68943;DHT22;60852;52.190;4.422;2023-02-03T06:51:17;9.79;83.57
68943;DHT22;60852;52.190;4.422;2023-02-03T06:53:43;9.86;83.24
68943;DHT22;60852;52.190;4.422;2023-02-03T06:56:08;9.89;83.10
68943;DHT22;60852;52.190;4.422;2023-02-03T06:58:33;9.83;83.27
68943;DHT22;60852;52.190;4.422;2023-02-03T07:00:59;9.85;83.18
68943;DHT22;60852;52.190;4.422;2023-02-03T07:03:24;9.86;83.32
68943;DHT22;60852;52.190;4.422;2023-02-03T07:05:50;9.89;83.34
68943;DHT22;60852;52.190;4.422;2023-02-03T07:08:15;9.96;83.10
68943;DHT22;60852;52.190;4.422;2023-02-03T07:10:41;9.99;82.97
68943;DHT22;60852;52.190;4.422;2023-02-03T07:13:07;9.99;82.95
68943;DHT22;60852;52.190;4.422;2023-02-03T07:15:32;9.96;82.94
68943;DHT22;60852;52.190;4.422;2023-02-03T07:17:58;10.03;82.69
68943;DHT22;60852;52.190;4.422;2023-02-03T07:20:24;10.04;82.58
68943;DHT22;60852;52.190;4.422;2023-02-03T07:22:53;10.00;82.73
68943;DHT22;60852;52.190;4.422;2023-02-03T07:25:20;10.04;82.72
68943;DHT22;60852;52.190;4.422;2023-02-03T07:27:45;10.07;82.53
68943;DHT22;60852;52.190;4.422;2023-02-03T07:30:11;10.06;82.58
68943;DHT22;60852;52.190;4.422;2023-02-03T07:32:37;10.07;82.47
68943;DHT22;60852;52.190;4.422;2023-02-03T07:35:02;9.99;82.73
68943;DHT22;60852;52.190;4.422;2023-02-03T07:37:28;9.96;82.91
68943;DHT22;60852;52.190;4.422;2023-02-03T07:39:53;9.94;82.86
68943;DHT22;60852;52.190;4.422;2023-02-03T07:42:18;9.97;82.87
68943;DHT22;60852;52.190;4.422;2023-02-03T07:44:44;9.94;82.78
68943;DHT22;60852;52.190;4.422;2023-02-03T07:47:09;9.90;83.02
68943;DHT22;60852;52.190;4.422;2023-02-03T07:49:35;9.89;82.95
68943;DHT22;60852;52.190;4.422;2023-02-03T07:52:00;9.94;82.91
68943;DHT22;60852;52.190;4.422;2023-02-03T07:54:26;9.94;82.98
68943;DHT22;60852;52.190;4.422;2023-02-03T07:56:51;9.92;82.88
68943;DHT22;60852;52.190;4.422;2023-02-03T07:59:17;9.94;83.05
68943;DHT22;60852;52.190;4.422;2023-02-03T08:01:42;9.93;83.12
68943;DHT22;60852;52.190;4.422;2023-02-03T08:04:07;9.97;83.11
68943;DHT22;60852;52.190;4.422;2023-02-03T08:06:33;10.02;82.87
68943;DHT22;60852;52.190;4.422;2023-02-03T08:08:59;9.99;82.85
68943;DHT22;60852;52.190;4.422;2023-02-03T08:11:24;10.00;82.80
68943;DHT22;60852;52.190;4.422;2023-02-03T08:13:49;10.03;82.61
68943;DHT22;60852;52.190;4.422;2023-02-03T08:16:15;10.06;82.74
68943;DHT22;60852;52.190;4.422;2023-02-03T08:18:41;10.07;82.72
68943;DHT22;60852;52.190;4.422;2023-02-03T08:21:06;10.12;82.48
68943;DHT22;60852;52.190;4.422;2023-02-03T08:23:31;10.10;82.39
68943;DHT22;60852;52.190;4.422;2023-02-03T08:25:57;10.12;82.40
68943;DHT22;60852;52.190;4.422;2023-02-03T08:28:23;10.13;82.43
68943;DHT22;60852;52.190;4.422;2023-02-03T08:30:49;10.13;82.48
68943;DHT22;60852;52.190;4.422;2023-02-03T08:33:15;10.13;82.44
68943;DHT22;60852;52.190;4.422;2023-02-03T08:35:44;10.10;82.65
68943;DHT22;60852;52.190;4.422;2023-02-03T08:38:10;10.14;82.68
68943;DHT22;60852;52.190;4.422;2023-02-03T08:40:35;10.03;82.96
68943;DHT22;60852;52.190;4.422;2023-02-03T08:43:00;10.06;82.87
68943;DHT22;60852;52.190;4.422;2023-02-03T08:45:26;10.14;82.77
68943;DHT22;60852;52.190;4.422;2023-02-03T08:47:51;10.13;82.77
68943;DHT22;60852;52.190;4.422;2023-02-03T08:50:17;10.14;82.66
68943;DHT22;60852;52.190;4.422;2023-02-03T08:52:43;10.18;82.73
68943;DHT22;60852;52.190;4.422;2023-02-03T08:55:09;10.17;82.61
68943;DHT22;60852;52.190;4.422;2023-02-03T08:57:36;10.23;82.53
68943;DHT22;60852;52.190;4.422;2023-02-03T09:00:03;10.20;82.46
68943;DHT22;60852;52.190;4.422;2023-02-03T09:02:29;10.24;82.60
68943;DHT22;60852;52.190;4.422;2023-02-03T09:04:55;10.25;82.53
68943;DHT22;60852;52.190;4.422;2023-02-03T09:07:20;10.29;82.45
68943;DHT22;60852;52.190;4.422;2023-02-03T09:09:46;10.30;82.46
68943;DHT22;60852;52.190;4.422;2023-02-03T09:12:11;10.37;82.17
68943;DHT22;60852;52.190;4.422;2023-02-03T09:14:37;10.42;81.91
68943;DHT22;60852;52.190;4.422;2023-02-03T09:17:05;10.44;81.76
68943;DHT22;60852;52.190;4.422;2023-02-03T09:19:32;10.41;81.77
68943;DHT22;60852;52.190;4.422;2023-02-03T09:21:58;10.48;81.70
68943;DHT22;60852;52.190;4.422;2023-02-03T09:24:23;10.47;81.60
68943;DHT22;60852;52.190;4.422;2023-02-03T09:26:49;10.45;81.51
68943;DHT22;60852;52.190;4.422;2023-02-03T09:29:15;10.47;81.60
68943;DHT22;60852;52.190;4.422;2023-02-03T09:31:40;10.47;81.60
68943;DHT22;60852;52.190;4.422;2023-02-03T09:34:07;10.47;81.39
68943;DHT22;60852;52.190;4.422;2023-02-03T09:36:32;10.51;81.33
68943;DHT22;60852;52.190;4.422;2023-02-03T09:38:58;10.52;81.26
68943;DHT22;60852;52.190;4.422;2023-02-03T09:47:15;10.52;81.05
68943;DHT22;60852;52.190;4.422;2023-02-03T09:49:51;10.57;80.99
68943;DHT22;60852;52.190;4.422;2023-02-03T09:52:24;10.51;81.06
68943;DHT22;60852;52.190;4.422;2023-02-03T09:55:03;10.54;81.19
68943;DHT22;60852;52.190;4.422;2023-02-03T09:57:34;10.51;81.04
68943;DHT22;60852;52.190;4.422;2023-02-03T10:00:16;10.61;80.96
68943;DHT22;60852;52.190;4.422;2023-02-03T10:03:06;10.67;80.58
68943;DHT22;60852;52.190;4.422;2023-02-03T10:11:00;10.50;81.20
68943;DHT22;60852;52.190;4.422;2023-02-03T10:18:58;10.36;81.64
68943;DHT22;60852;52.190;4.422;2023-02-03T10:21:49;10.30;82.02
68943;DHT22;60852;52.190;4.422;2023-02-03T10:24:37;10.42;81.81
68943;DHT22;60852;52.190;4.422;2023-02-03T10:27:08;10.51;81.37
68943;DHT22;60852;52.190;4.422;2023-02-03T10:29:41;10.65;81.05
68943;DHT22;60852;52.190;4.422;2023-02-03T10:32:09;10.55;81.01
68943;DHT22;60852;52.190;4.422;2023-02-03T10:34:35;10.67;80.93
68943;DHT22;60852;52.190;4.422;2023-02-03T10:39:52;10.68;80.67
68943;DHT22;60852;52.190;4.422;2023-02-03T10:42:20;10.51;81.38
68943;DHT22;60852;52.190;4.422;2023-02-03T10:44:51;10.57;81.25
68943;DHT22;60852;52.190;4.422;2023-02-03T10:47:36;10.68;80.88
68943;DHT22;60852;52.190;4.422;2023-02-03T10:50:15;10.71;80.91
68943;DHT22;60852;52.190;4.422;2023-02-03T10:52:42;10.64;80.95
68943;DHT22;60852;52.190;4.422;2023-02-03T10:55:28;10.71;80.65
68943;DHT22;60852;52.190;4.422;2023-02-03T10:57:56;10.62;80.85
68943;DHT22;60852;52.190;4.422;2023-02-03T11:00:31;10.71;80.72
68943;DHT22;60852;52.190;4.422;2023-02-03T11:03:07;10.72;80.70
68943;DHT22;60852;52.190;4.422;2023-02-03T11:05:41;10.72;80.90
68943;DHT22;60852;52.190;4.422;2023-02-03T11:08:14;10.65;81.05
68943;DHT22;60852;52.190;4.422;2023-02-03T11:10:40;10.67;81.10
68943;DHT22;60852;52.190;4.422;2023-02-03T11:13:23;10.76;80.86
68943;DHT22;60852;52.190;4.422;2023-02-03T11:16:14;10.72;80.95
68943;DHT22;60852;52.190;4.422;2023-02-03T11:18:56;10.71;81.00
68943;DHT22;60852;52.190;4.422;2023-02-03T11:29:05;10.85;80.46
68943;DHT22;60852;52.190;4.422;2023-02-03T11:31:34;10.82;80.62
68943;DHT22;60852;52.190;4.422;2023-02-03T11:34:06;10.83;80.46
68943;DHT22;60852;52.190;4.422;2023-02-03T11:36:39;10.75;80.79
68943;DHT22;60852;52.190;4.422;2023-02-03T11:39:16;10.81;80.53
68943;DHT22;60852;52.190;4.422;2023-02-03T11:41:42;10.85;80.46
68943;DHT22;60852;52.190;4.422;2023-02-03T11:44:19;10.75;80.53
68943;DHT22;60852;52.190;4.422;2023-02-03T11:46:51;10.83;80.63
68943;DHT22;60852;52.190;4.422;2023-02-03T12:03:14;10.91;80.55
68943;DHT22;60852;52.190;4.422;2023-02-03T12:08:58;10.81;80.83
68943;DHT22;60852;52.190;4.422;2023-02-03T12:11:43;10.82;80.66
68943;DHT22;60852;52.190;4.422;2023-02-03T12:14:14;10.83;80.56
68943;DHT22;60852;52.190;4.422;2023-02-03T12:23:09;10.88;80.65
68943;DHT22;60852;52.190;4.422;2023-02-03T12:25:53;10.79;80.81
68943;DHT22;60852;52.190;4.422;2023-02-03T12:28:52;10.92;80.63
68943;DHT22;60852;52.190;4.422;2023-02-03T12:31:33;10.96;80.18
68943;DHT22;60852;52.190;4.422;2023-02-03T12:34:45;10.95;80.27
68943;DHT22;60852;52.190;4.422;2023-02-03T12:37:14;10.95;80.13
68943;DHT22;60852;52.190;4.422;2023-02-03T12:39:51;10.86;80.56
68943;DHT22;60852;52.190;4.422;2023-02-03T12:42:18;10.89;80.52
68943;DHT22;60852;52.190;4.422;2023-02-03T12:45:04;10.82;80.53
68943;DHT22;60852;52.190;4.422;2023-02-03T12:50:20;10.65;81.23
68943;DHT22;60852;52.190;4.422;2023-02-03T12:53:03;10.58;81.54
68943;DHT22;60852;52.190;4.422;2023-02-03T12:55:54;10.52;81.82
68943;DHT22;60852;52.190;4.422;2023-02-03T12:58:40;10.54;81.87
68943;DHT22;60852;52.190;4.422;2023-02-03T13:01:15;10.57;81.62
68943;DHT22;60852;52.190;4.422;2023-02-03T13:04:04;10.54;81.87
68943;DHT22;60852;52.190;4.422;2023-02-03T13:06:42;10.45;82.56
68943;DHT22;60852;52.190;4.422;2023-02-03T13:09:37;10.42;82.86
68943;DHT22;60852;52.190;4.422;2023-02-03T13:12:58;10.36;83.37
68943;DHT22;60852;52.190;4.422;2023-02-03T13:20:34;10.20;84.24
68943;DHT22;60852;52.190;4.422;2023-02-03T13:23:06;10.13;84.80
68943;DHT22;60852;52.190;4.422;2023-02-03T13:37:16;10.31;84.52
68943;DHT22;60852;52.190;4.422;2023-02-03T13:40:04;10.20;84.74
68943;DHT22;60852;52.190;4.422;2023-02-03T13:42:35;10.23;85.07
68943;DHT22;60852;52.190;4.422;2023-02-03T13:45:26;10.34;84.81
68943;DHT22;60852;52.190;4.422;2023-02-03T13:47:59;10.30;84.80
68943;DHT22;60852;52.190;4.422;2023-02-03T13:50:29;10.31;84.61
68943;DHT22;60852;52.190;4.422;2023-02-03T13:52:59;10.33;84.37
68943;DHT22;60852;52.190;4.422;2023-02-03T13:55:34;10.40;84.45
68943;DHT22;60852;52.190;4.422;2023-02-03T13:58:03;10.54;83.89
68943;DHT22;60852;52.190;4.422;2023-02-03T14:05:52;10.57;83.31
68943;DHT22;60852;52.190;4.422;2023-02-03T14:16:38;10.55;83.00
68943;DHT22;60852;52.190;4.422;2023-02-03T14:19:12;10.45;83.29
68943;DHT22;60852;52.190;4.422;2023-02-03T14:21:50;10.55;83.27
68943;DHT22;60852;52.190;4.422;2023-02-03T14:24:17;10.54;83.54
68943;DHT22;60852;52.190;4.422;2023-02-03T14:26:47;10.64;83.06
68943;DHT22;60852;52.190;4.422;2023-02-03T14:29:34;10.51;83.20
68943;DHT22;60852;52.190;4.422;2023-02-03T14:32:09;10.52;83.31
68943;DHT22;60852;52.190;4.422;2023-02-03T14:34:41;10.40;83.72
68943;DHT22;60852;52.190;4.422;2023-02-03T14:37:17;10.51;83.68
68943;DHT22;60852;52.190;4.422;2023-02-03T14:40:08;10.65;83.04
68943;DHT22;60852;52.190;4.422;2023-02-03T14:46:00;10.37;83.53
68943;DHT22;60852;52.190;4.422;2023-02-03T14:48:34;10.37;83.69
68943;DHT22;60852;52.190;4.422;2023-02-03T14:51:05;10.50;83.56
68943;DHT22;60852;52.190;4.422;2023-02-03T15:02:28;10.42;83.59
68943;DHT22;60852;52.190;4.422;2023-02-03T15:07:48;10.38;83.45
68943;DHT22;60852;52.190;4.422;2023-02-03T15:10:22;10.34;83.79
68943;DHT22;60852;52.190;4.422;2023-02-03T15:12:51;10.40;83.62
68943;DHT22;60852;52.190;4.422;2023-02-03T15:15:26;10.44;83.63
68943;DHT22;60852;52.190;4.422;2023-02-03T15:17:56;10.50;83.29
68943;DHT22;60852;52.190;4.422;2023-02-03T15:20:31;10.52;83.26
68943;DHT22;60852;52.190;4.422;2023-02-03T15:22:56;10.54;83.27
68943;DHT22;60852;52.190;4.422;2023-02-03T15:25:28;10.55;83.28
68943;DHT22;60852;52.190;4.422;2023-02-03T15:27:53;10.61;82.98
68943;DHT22;60852;52.190;4.422;2023-02-03T15:30:26;10.64;82.90
68943;DHT22;60852;52.190;4.422;2023-02-03T15:32:59;10.48;83.12
68943;DHT22;60852;52.190;4.422;2023-02-03T15:35:31;10.27;84.22
68943;DHT22;60852;52.190;4.422;2023-02-03T15:38:13;10.34;84.24
68943;DHT22;60852;52.190;4.422;2023-02-03T15:40:44;10.48;83.67
68943;DHT22;60852;52.190;4.422;2023-02-03T15:56:44;10.37;83.75
68943;DHT22;60852;52.190;4.422;2023-02-03T16:01:49;10.33;83.76
68943;DHT22;60852;52.190;4.422;2023-02-03T16:04:16;10.24;84.07
68943;DHT22;60852;52.190;4.422;2023-02-03T16:06:46;10.29;84.06
68943;DHT22;60852;52.190;4.422;2023-02-03T16:09:32;10.29;84.04
68943;DHT22;60852;52.190;4.422;2023-02-03T16:12:15;10.42;83.67
68943;DHT22;60852;52.190;4.422;2023-02-03T16:14:41;10.38;83.10
68943;DHT22;60852;52.190;4.422;2023-02-03T16:17:33;10.38;83.38
68943;DHT22;60852;52.190;4.422;2023-02-03T16:22:39;10.30;83.50
68943;DHT22;60852;52.190;4.422;2023-02-03T16:25:33;10.34;83.37
68943;DHT22;60852;52.190;4.422;2023-02-03T16:31:01;10.23;83.54
68943;DHT22;60852;52.190;4.422;2023-02-03T16:33:47;10.21;83.67
68943;DHT22;60852;52.190;4.422;2023-02-03T16:36:32;10.27;83.65
68943;DHT22;60852;52.190;4.422;2023-02-03T16:39:16;10.21;83.56
68943;DHT22;60852;52.190;4.422;2023-02-03T16:42:10;10.07;84.28
68943;DHT22;60852;52.190;4.422;2023-02-03T16:44:56;10.18;84.03
68943;DHT22;60852;52.190;4.422;2023-02-03T16:47:43;10.21;83.88
68943;DHT22;60852;52.190;4.422;2023-02-03T16:50:28;10.13;83.64
68943;DHT22;60852;52.190;4.422;2023-02-03T16:53:15;10.13;83.76
68943;DHT22;60852;52.190;4.422;2023-02-03T16:55:42;10.13;83.82
68943;DHT22;60852;52.190;4.422;2023-02-03T16:58:08;10.17;83.84
68943;DHT22;60852;52.190;4.422;2023-02-03T17:00:36;10.16;83.91
68943;DHT22;60852;52.190;4.422;2023-02-03T17:03:05;10.17;83.86
68943;DHT22;60852;52.190;4.422;2023-02-03T17:05:39;10.10;84.06
68943;DHT22;60852;52.190;4.422;2023-02-03T17:08:12;10.06;84.03
68943;DHT22;60852;52.190;4.422;2023-02-03T17:10:40;10.07;84.27
68943;DHT22;60852;52.190;4.422;2023-02-03T17:13:06;10.06;84.36
68943;DHT22;60852;52.190;4.422;2023-02-03T17:15:33;10.12;84.32
68943;DHT22;60852;52.190;4.422;2023-02-03T17:18:03;10.13;84.18
68943;DHT22;60852;52.190;4.422;2023-02-03T17:20:28;10.21;84.30
68943;DHT22;60852;52.190;4.422;2023-02-03T17:22:54;10.21;83.75
68943;DHT22;60852;52.190;4.422;2023-02-03T17:25:19;10.24;83.70
68943;DHT22;60852;52.190;4.422;2023-02-03T17:27:46;10.29;83.74
68943;DHT22;60852;52.190;4.422;2023-02-03T17:30:12;10.31;83.57
68943;DHT22;60852;52.190;4.422;2023-02-03T17:32:38;10.33;83.34
68943;DHT22;60852;52.190;4.422;2023-02-03T17:35:03;10.29;83.54
68943;DHT22;60852;52.190;4.422;2023-02-03T17:37:33;10.30;83.44
68943;DHT22;60852;52.190;4.422;2023-02-03T17:39:58;10.33;83.29
68943;DHT22;60852;52.190;4.422;2023-02-03T17:42:24;10.37;83.18
68943;DHT22;60852;52.190;4.422;2023-02-03T17:44:49;10.30;83.11
68943;DHT22;60852;52.190;4.422;2023-02-03T17:47:15;10.16;83.55
68943;DHT22;60852;52.190;4.422;2023-02-03T17:49:40;10.16;83.74
68943;DHT22;60852;52.190;4.422;2023-02-03T17:52:05;10.25;83.54
68943;DHT22;60852;52.190;4.422;2023-02-03T17:54:31;10.23;83.64
68943;DHT22;60852;52.190;4.422;2023-02-03T17:56:58;10.18;83.78
68943;DHT22;60852;52.190;4.422;2023-02-03T17:59:24;10.20;83.75
68943;DHT22;60852;52.190;4.422;2023-02-03T18:01:49;10.09;84.20
68943;DHT22;60852;52.190;4.422;2023-02-03T18:04:16;10.07;84.12
68943;DHT22;60852;52.190;4.422;2023-02-03T18:06:42;10.00;84.71
68943;DHT22;60852;52.190;4.422;2023-02-03T18:09:08;10.02;84.56
68943;DHT22;60852;52.190;4.422;2023-02-03T18:11:36;9.90;84.69
68943;DHT22;60852;52.190;4.422;2023-02-03T18:14:02;9.69;85.80
68943;DHT22;60852;52.190;4.422;2023-02-03T18:16:32;9.82;85.70
68943;DHT22;60852;52.190;4.422;2023-02-03T18:19:01;9.89;85.54
68943;DHT22;60852;52.190;4.422;2023-02-03T18:21:27;9.86;85.34
68943;DHT22;60852;52.190;4.422;2023-02-03T18:23:53;9.94;85.02
68943;DHT22;60852;52.190;4.422;2023-02-03T18:26:24;9.96;85.16
68943;DHT22;60852;52.190;4.422;2023-02-03T18:28:51;9.96;84.79